Terminal Aerodrome Forecast
Issued by NWS Shreveport, LA

Home | Current Version | Previous Version | Text Only | Print | Product List | Glossary On
Versions: 1 2 3 4 5 6 7 8 9 10 11 12
726
FTUS44 KSHV 261746
TAFTYR
TAF
KTYR 261746Z 2618/2718 14006KT P6SM BKN045 BKN080
     FM262100 10006KT P6SM SCT050 BKN280
     FM270000 09005KT P6SM SCT060 BKN250
     FM270600 07004KT P6SM BKN050 OVC150
     FM271500 05006KT P6SM BKN050 BKN100=

USA.gov is the U.S. government's official web portal to all federal, state and local government web resources and services.